Time;durP1;ratioP1;P1;durP2;ratioP2;P2;SDS_P1;SDS_P2;PMS_P1;PMS_P2;Temp;Humidity;BMP_temperature;BMP_pressure;BME280_temperature;BME280_humidity;BME280_pressure;Samples;Min_cycle;Max_cycle;Signal;HPM_P1;HPM_P2
2023/05/18 00:02:14;;;;;;;;;1.00;1.00;;;;;13.35;100.00;99640.56;6290564;20;2736171;-54
2023/05/18 00:04:42;;;;;;;;;2.00;0.00;;;;;13.38;100.00;99643.00;6288931;20;2727333;-51
2023/05/18 00:07:10;;;;;;;;;0.00;0.00;;;;;13.26;100.00;99638.50;6287831;20;2724246;-51
2023/05/18 00:09:37;;;;;;;;;0.00;0.00;;;;;13.19;100.00;99642.59;6289351;20;2727470;-52
2023/05/18 00:12:05;;;;;;;;;1.50;1.00;;;;;13.28;100.00;99641.97;6288703;20;2728462;-50
2023/05/18 00:14:32;;;;;;;;;1.00;1.00;;;;;13.21;100.00;99637.97;6284913;20;2730488;-52
2023/05/18 00:17:01;;;;;;;;;1.00;1.00;;;;;13.14;100.00;99642.09;6303667;20;1800387;-50
2023/05/18 00:19:30;;;;;;;;;3.00;2.00;;;;;13.09;100.00;99634.34;6318235;20;2736838;-54
2023/05/18 00:21:57;;;;;;;;;1.00;1.00;;;;;13.09;100.00;99633.47;6286659;20;2738832;-48
2023/05/18 00:24:25;;;;;;;;;2.00;1.00;;;;;13.04;100.00;99635.66;6301669;20;1803626;-54
2023/05/18 00:26:52;;;;;;;;;1.00;1.00;;;;;12.90;100.00;99626.72;6317003;20;2731664;-51
2023/05/18 00:29:20;;;;;;;;;0.50;0.50;;;;;12.93;100.00;99631.91;6287297;20;2730717;-54
2023/05/18 00:31:48;;;;;;;;;0.00;0.00;;;;;12.91;100.00;99631.13;6301701;20;1803431;-52
2023/05/18 00:34:15;;;;;;;;;0.00;0.00;;;;;13.05;100.00;99635.53;6305146;20;2726354;-51
2023/05/18 00:36:42;;;;;;;;;1.00;1.00;;;;;12.88;100.00;99638.59;6276796;20;2729604;-53
2023/05/18 00:39:10;;;;;;;;;0.00;0.00;;;;;12.84;100.00;99637.94;6265586;20;2736163;-51
2023/05/18 00:41:37;;;;;;;;;1.00;1.00;;;;;12.93;100.00;99641.81;6286445;20;2738784;-55
2023/05/18 00:44:05;;;;;;;;;1.00;1.00;;;;;12.87;100.00;99640.41;6299033;20;1800391;-53
2023/05/18 00:46:32;;;;;;;;;2.00;1.00;;;;;12.92;100.00;99640.06;6317566;20;2735905;-54
2023/05/18 00:49:01;;;;;;;;;1.00;1.00;;;;;12.85;100.00;99631.59;6288595;20;2737898;-51
2023/05/18 00:51:31;;;;;;;;;0.00;0.00;;;;;12.95;100.00;99639.84;6281040;20;2735854;-54
2023/05/18 00:54:01;;;;;;;;;0.00;0.00;;;;;12.88;100.00;99639.44;6282461;20;2727408;-51
2023/05/18 00:56:32;;;;;;;;;0.00;0.00;;;;;12.82;100.00;99645.28;6298644;20;1803730;-54
2023/05/18 00:59:02;;;;;;;;;1.00;0.00;;;;;12.93;100.00;99642.69;6319888;20;2728457;-51
2023/05/18 01:01:35;;;;;;;;;0.50;0.50;;;;;12.76;100.00;99644.84;6284148;20;2724385;-54
2023/05/18 01:04:03;;;;;;;;;0.50;0.50;;;;;12.83;100.00;99646.13;6298940;20;1797241;-51
2023/05/18 01:06:34;;;;;;;;;0.00;0.00;;;;;12.79;100.00;99653.56;6313980;20;2727449;-52
2023/05/18 01:09:05;;;;;;;;;0.00;0.00;;;;;12.71;100.00;99648.72;6286202;20;2735690;-50
2023/05/18 01:11:54;;;;;;;;;0.00;0.00;;;;;12.66;100.00;99650.88;6283437;20;2732690;-54
2023/05/18 01:14:44;;;;;;;;;0.00;0.00;;;;;12.79;100.00;99661.66;6286324;20;2727359;-53
2023/05/18 01:17:50;;;;;;;;;0.00;0.00;;;;;12.72;100.00;99663.94;6285078;20;2735812;-55
2023/05/18 01:20:41;;;;;;;;;0.00;0.00;;;;;12.64;100.00;99665.44;6284077;20;2727327;-52
2023/05/18 01:23:34;;;;;;;;;2.00;0.00;;;;;12.74;100.00;99663.81;6303926;20;1802615;-49
2023/05/18 01:26:28;;;;;;;;;2.00;0.00;;;;;12.64;100.00;99668.16;6316886;20;2727348;-49
2023/05/18 01:29:06;;;;;;;;;0.00;0.00;;;;;12.69;100.00;99671.34;6300946;20;1802406;-52
2023/05/18 01:31:34;;;;;;;;;0.00;0.00;;;;;12.63;100.00;99667.25;6328526;20;1798903;-48
2023/05/18 01:34:02;;;;;;;;;0.00;0.00;;;;;12.70;100.00;99675.78;6312338;20;2723177;-51
2023/05/18 01:36:30;;;;;;;;;0.00;0.00;;;;;12.68;100.00;99677.72;6288072;20;2727391;-51
2023/05/18 01:39:00;;;;;;;;;0.00;0.00;;;;;12.69;100.00;99676.72;6289226;20;2730451;-53
2023/05/18 01:41:35;;;;;;;;;0.00;0.00;;;;;12.68;100.00;99669.63;6300082;20;1802524;-51
2023/05/18 01:44:14;;;;;;;;;0.00;0.00;;;;;12.60;100.00;99677.41;6315457;20;2725274;-51
2023/05/18 01:46:54;;;;;;;;;0.00;0.00;;;;;12.62;100.00;99678.16;6298791;20;1807681;-51
2023/05/18 01:50:00;;;;;;;;;0.00;0.00;;;;;12.60;100.00;99682.78;6317827;20;2729494;-51
2023/05/18 01:52:36;;;;;;;;;2.00;0.00;;;;;12.61;100.00;99684.50;6299952;20;1804561;-53
2023/05/18 01:55:05;;;;;;;;;2.50;0.00;;;;;12.56;100.00;99683.94;6314908;20;2729449;-51
2023/05/18 01:57:35;;;;;;;;;0.00;0.00;;;;;12.54;100.00;99683.22;6283877;20;2720105;-53
2023/05/18 02:00:09;;;;;;;;;0.00;0.00;;;;;12.64;100.00;99682.47;6299752;20;1800402;-55
2023/05/18 02:02:36;;;;;;;;;0.00;0.00;;;;;12.57;100.00;99683.00;6314313;20;2727385;-54
2023/05/18 02:05:05;;;;;;;;;0.00;0.00;;;;;12.56;100.00;99679.44;6286105;20;2730515;-52
2023/05/18 02:07:33;;;;;;;;;3.00;0.00;;;;;12.61;100.00;99681.81;6300099;20;1803533;-52
2023/05/18 02:10:00;;;;;;;;;2.00;0.00;;;;;12.51;100.00;99690.53;6314927;20;2727525;-52
2023/05/18 02:12:29;;;;;;;;;0.00;0.00;;;;;12.51;100.00;99679.78;6303548;20;1802468;-54
2023/05/18 02:14:57;;;;;;;;;1.00;1.00;;;;;12.50;100.00;99687.94;6313735;20;2735666;-51
2023/05/18 02:17:25;;;;;;;;;0.00;0.00;;;;;12.41;100.00;99689.44;6284829;20;2732693;-53
2023/05/18 02:19:52;;;;;;;;;0.00;0.00;;;;;12.46;100.00;99687.31;6284769;20;2733603;-52
2023/05/18 02:22:20;;;;;;;;;0.00;0.00;;;;;12.45;100.00;99693.66;6298540;20;1803581;-52
2023/05/18 02:24:48;;;;;;;;;0.00;0.00;;;;;12.44;100.00;99683.84;6315861;20;2735719;-51
2023/05/18 02:27:15;;;;;;;;;1.00;1.00;;;;;12.45;100.00;99685.59;6285486;20;2733664;-54
2023/05/18 02:29:42;;;;;;;;;0.00;0.00;;;;;12.37;100.00;99689.75;6285256;20;2694076;-55
2023/05/18 02:32:10;;;;;;;;;0.00;0.00;;;;;12.34;100.00;99696.22;6298312;20;1806639;-53
2023/05/18 02:34:40;;;;;;;;;0.00;0.00;;;;;12.48;100.00;99693.44;6316109;20;2735823;-49
2023/05/18 02:37:09;;;;;;;;;0.00;0.00;;;;;12.43;100.00;99687.53;6284734;20;2726377;-54
2023/05/18 02:39:37;;;;;;;;;0.00;0.00;;;;;12.44;100.00;99694.63;6298057;20;1803538;-51
2023/05/18 02:42:05;;;;;;;;;0.00;0.00;;;;;12.35;100.00;99700.66;6317186;20;2727443;-51
2023/05/18 02:44:33;;;;;;;;;2.00;0.00;;;;;12.30;100.00;99692.03;6299518;20;1803607;-51
2023/05/18 02:47:00;;;;;;;;;0.00;0.00;;;;;12.28;100.00;99694.81;6316099;20;2727398;-50
2023/05/18 02:49:28;;;;;;;;;0.00;0.00;;;;;12.27;100.00;99689.56;6300461;20;1803087;-54
2023/05/18 02:51:55;;;;;;;;;0.00;0.00;;;;;12.32;100.00;99689.22;6313506;20;2730527;-49
2023/05/18 02:54:23;;;;;;;;;0.00;0.00;;;;;12.21;100.00;99689.94;6283831;20;2735699;-52
2023/05/18 02:56:50;;;;;;;;;1.00;0.00;;;;;12.26;100.00;99693.19;6283888;20;2728435;-49
2023/05/18 02:59:18;;;;;;;;;2.00;1.00;;;;;12.21;100.00;99698.03;6295709;20;1803644;-49
2023/05/18 03:01:45;;;;;;;;;0.00;0.00;;;;;12.27;100.00;99692.25;6315303;20;2731583;-50
2023/05/18 03:04:13;;;;;;;;;0.00;0.00;;;;;12.24;100.00;99693.31;6288709;20;2728486;-56
2023/05/18 03:06:41;;;;;;;;;0.00;0.00;;;;;12.29;100.00;99696.53;6296615;20;1803310;-53
2023/05/18 03:09:08;;;;;;;;;1.00;1.00;;;;;12.27;100.00;99692.25;6318360;20;2729455;-55
2023/05/18 03:11:36;;;;;;;;;0.00;0.00;;;;;12.26;100.00;99701.28;6296451;20;1803502;-52
2023/05/18 03:14:03;;;;;;;;;0.00;0.00;;;;;12.31;100.00;99701.81;6315814;20;2733639;-54
2023/05/18 03:16:30;;;;;;;;;1.00;0.00;;;;;12.27;100.00;99711.94;6278993;20;2731585;-50
2023/05/18 03:19:00;;;;;;;;;0.00;0.00;;;;;12.23;100.00;99698.78;6286640;20;2733624;-50
2023/05/18 03:21:32;;;;;;;;;0.00;0.00;;;;;12.34;100.00;99709.69;6298863;20;1800376;-52
2023/05/18 03:24:00;;;;;;;;;0.00;0.00;;;;;12.30;100.00;99702.78;6316481;20;2735806;-54
2023/05/18 03:26:29;;;;;;;;;0.00;0.00;;;;;12.24;100.00;99708.56;6280708;20;2735718;-50
2023/05/18 03:28:58;;;;;;;;;0.00;0.00;;;;;12.19;100.00;99705.34;6297084;20;1803482;-54
2023/05/18 03:31:25;;;;;;;;;0.00;0.00;;;;;12.25;100.00;99703.09;6314318;20;2731586;-55
2023/05/18 03:33:53;;;;;;;;;0.00;0.00;;;;;12.29;100.00;99703.75;6283364;20;2735799;-53
2023/05/18 03:36:21;;;;;;;;;0.00;0.00;;;;;12.23;100.00;99713.09;6280787;20;2732625;-53
2023/05/18 03:38:48;;;;;;;;;0.00;0.00;;;;;12.41;100.00;99715.53;6285936;20;2721140;-52
2023/05/18 03:41:16;;;;;;;;;0.00;0.00;;;;;12.38;100.00;99721.97;6297426;20;1807665;-49
2023/05/18 03:43:43;;;;;;;;;0.00;0.00;;;;;12.39;100.00;99722.84;6315600;20;2735709;-51
2023/05/18 03:46:11;;;;;;;;;0.00;0.00;;;;;12.30;100.00;99724.34;6282245;20;2735675;-51
2023/05/18 03:48:38;;;;;;;;;0.00;0.00;;;;;12.30;100.00;99724.34;6286285;20;2727375;-55
2023/05/18 03:51:06;;;;;;;;;0.00;0.00;;;;;12.23;100.00;99728.41;6294974;20;1806744;-56
2023/05/18 03:53:35;;;;;;;;;0.00;0.00;;;;;12.23;100.00;99728.41;6315096;20;2730514;-52
2023/05/18 03:56:02;;;;;;;;;1.00;0.00;;;;;12.21;100.00;99736.56;6279804;20;2731497;-56
2023/05/18 03:58:29;;;;;;;;;0.00;0.00;;;;;12.30;100.00;99735.09;6283443;20;2727383;-53
2023/05/18 04:00:59;;;;;;;;;0.00;0.00;;;;;12.20;100.00;99734.84;6294227;20;1804023;-54
2023/05/18 04:03:26;;;;;;;;;0.00;0.00;;;;;12.35;100.00;99737.47;6315616;20;2733650;-54
2023/05/18 04:05:54;;;;;;;;;0.00;0.00;;;;;12.20;100.00;99739.38;6281164;20;2731553;-54
2023/05/18 04:08:24;;;;;;;;;0.00;0.00;;;;;12.20;100.00;99747.47;6290057;20;2728452;-52
2023/05/18 04:10:51;;;;;;;;;1.00;0.00;;;;;12.20;100.00;99750.16;6286723;20;2731511;-53
2023/05/18 04:13:19;;;;;;;;;0.00;0.00;;;;;12.17;100.00;99750.38;6288620;20;2735780;-52
2023/05/18 04:15:47;;;;;;;;;0.00;0.00;;;;;12.14;100.00;99750.53;6286368;20;2735825;-54
2023/05/18 04:18:16;;;;;;;;;0.00;0.00;;;;;12.20;100.00;99755.53;6304747;20;1802572;-53
2023/05/18 04:20:44;;;;;;;;;0.00;0.00;;;;;12.26;100.00;99753.28;6317310;20;2729477;-50
2023/05/18 04:23:12;;;;;;;;;2.00;1.00;;;;;12.26;100.00;99749.72;6291315;20;2739864;-54
2023/05/18 04:25:40;;;;;;;;;0.00;0.00;;;;;12.09;100.00;99753.56;6300996;20;1799502;-53
2023/05/18 04:28:08;;;;;;;;;1.00;0.00;;;;;12.29;100.00;99750.38;6319062;20;2729519;-52
2023/05/18 04:30:38;;;;;;;;;0.00;0.00;;;;;12.21;100.00;99762.63;6284879;20;2730464;-53
2023/05/18 04:33:07;;;;;;;;;0.00;0.00;;;;;12.12;100.00;99758.72;6287249;20;1802479;-55
2023/05/18 04:35:35;;;;;;;;;1.00;0.00;;;;;12.22;100.00;99765.22;6329150;20;1800569;-55
2023/05/18 04:38:04;;;;;;;;;0.00;0.00;;;;;12.24;100.00;99778.56;6311249;20;2730677;-54
2023/05/18 04:40:32;;;;;;;;;0.00;0.00;;;;;12.19;100.00;99778.00;6276493;20;2727365;-51
2023/05/18 04:43:00;;;;;;;;;0.00;0.00;;;;;12.19;100.00;99769.94;6289842;20;2733623;-53
2023/05/18 04:45:28;;;;;;;;;1.00;1.00;;;;;12.18;100.00;99770.91;6301800;20;1803591;-53
2023/05/18 04:47:57;;;;;;;;;1.00;0.00;;;;;12.16;100.00;99770.16;6331896;20;1802864;-50
2023/05/18 04:50:24;;;;;;;;;0.00;0.00;;;;;12.15;100.00;99773.81;6317680;20;2731687;-55
2023/05/18 04:52:56;;;;;;;;;0.00;0.00;;;;;12.29;100.00;99782.69;6305265;20;1805622;-54
2023/05/18 04:55:25;;;;;;;;;0.25;0.25;;;;;12.25;100.00;99778.47;6334511;20;1796260;-51
2023/05/18 04:57:56;;;;;;;;;2.00;1.75;;;;;12.27;100.00;99768.47;6332689;20;1799325;-53
2023/05/18 05:00:27;;;;;;;;;3.00;1.00;;;;;12.19;100.00;99772.63;6313360;20;2724260;-49
2023/05/18 05:02:57;;;;;;;;;1.75;1.00;;;;;12.37;100.00;99778.63;6303144;20;1806651;-49
2023/05/18 05:05:25;;;;;;;;;1.00;1.00;;;;;12.34;100.00;99779.69;6316579;20;2729569;-51
2023/05/18 05:07:54;;;;;;;;;0.00;0.00;;;;;12.16;100.00;99784.47;6286688;20;3437757;-51
2023/05/18 05:10:22;;;;;;;;;1.00;0.00;;;;;12.18;100.00;99785.22;6288429;20;2727354;-52
2023/05/18 05:12:50;;;;;;;;;1.50;1.00;;;;;12.30;100.00;99783.56;6300701;20;1799299;-50
2023/05/18 05:15:19;;;;;;;;;1.00;1.00;;;;;12.32;100.00;99792.38;6316054;20;2723232;-51
2023/05/18 05:17:47;;;;;;;;;0.50;0.50;;;;;12.23;100.00;99791.16;6296399;20;1803624;-47
2023/05/18 05:20:16;;;;;;;;;1.00;0.00;;;;;12.24;100.00;99795.63;6319934;20;2727466;-53
2023/05/18 05:22:43;;;;;;;;;1.00;0.00;;;;;12.21;100.00;99794.94;6287812;20;2735713;-53
2023/05/18 05:25:11;;;;;;;;;1.50;1.00;;;;;12.28;100.00;99802.50;6283838;20;2729503;-51
2023/05/18 05:27:39;;;;;;;;;0.00;0.00;;;;;12.34;100.00;99792.28;6301820;20;1802994;-53
2023/05/18 05:30:07;;;;;;;;;0.00;0.00;;;;;12.34;100.00;99793.16;6317859;20;2727481;-55
2023/05/18 05:32:35;;;;;;;;;2.00;1.00;;;;;12.35;100.00;99802.97;6290198;20;2727446;-52
2023/05/18 05:35:04;;;;;;;;;2.00;2.00;;;;;12.27;100.00;99803.47;6302318;20;1800473;-50
2023/05/18 05:37:31;;;;;;;;;1.00;1.00;;;;;12.36;100.00;99804.69;6317835;20;2726395;-47
2023/05/18 05:39:58;;;;;;;;;2.50;1.00;;;;;12.29;100.00;99809.59;6281526;20;2727852;-51
2023/05/18 05:42:26;;;;;;;;;2.00;0.25;;;;;12.33;100.00;99810.28;6302657;20;1805581;-51
2023/05/18 05:44:54;;;;;;;;;1.00;1.00;;;;;12.26;100.00;99808.94;6333741;20;1800413;-55
2023/05/18 05:47:22;;;;;;;;;3.00;1.00;;;;;12.29;100.00;99811.44;6321890;20;2731524;-55
2023/05/18 05:49:49;;;;;;;;;1.00;1.00;;;;;12.37;100.00;99817.16;6290687;20;2723280;-47
2023/05/18 05:52:17;;;;;;;;;1.00;1.00;;;;;12.15;100.00;99816.88;6305357;20;1803491;-53
2023/05/18 05:54:45;;;;;;;;;1.00;1.00;;;;;12.25;100.00;99812.63;6317013;20;2737961;-53
2023/05/18 05:57:12;;;;;;;;;1.00;1.00;;;;;12.20;100.00;99814.75;6287314;20;2734646;-48
2023/05/18 05:59:40;;;;;;;;;1.00;1.00;;;;;12.28;100.00;99817.78;6303310;20;1805669;-49
2023/05/18 06:02:07;;;;;;;;;1.00;1.00;;;;;12.25;100.00;99818.00;6316471;20;2737224;-53
2023/05/18 06:04:35;;;;;;;;;1.00;1.00;;;;;12.17;100.00;99820.34;6302599;20;1804580;-52
2023/05/18 06:07:03;;;;;;;;;1.50;1.50;;;;;12.18;100.00;99822.06;6320684;20;2736233;-50
2023/05/18 06:09:31;;;;;;;;;1.00;1.00;;;;;12.24;100.00;99817.16;6303513;20;1803531;-54
2023/05/18 06:11:58;;;;;;;;;2.00;1.00;;;;;12.25;100.00;99828.78;6320585;20;2724666;-47
2023/05/18 06:14:27;;;;;;;;;0.50;0.50;;;;;12.31;100.00;99831.06;6302700;20;1805628;-52
2023/05/18 06:16:55;;;;;;;;;0.75;0.00;;;;;12.33;100.00;99836.34;6329970;20;1800153;-53
2023/05/18 06:19:22;;;;;;;;;2.00;2.00;;;;;12.27;100.00;99830.41;6315674;20;2740907;-52
2023/05/18 06:21:49;;;;;;;;;4.00;1.00;;;;;12.19;100.00;99840.81;6283362;20;2732642;-53
2023/05/18 06:24:17;;;;;;;;;2.00;1.00;;;;;12.22;100.00;99839.75;6287700;20;2727479;-49
2023/05/18 06:26:45;;;;;;;;;1.00;1.00;;;;;12.38;100.00;99834.22;6300031;20;1809246;-51
2023/05/18 06:29:13;;;;;;;;;1.00;1.00;;;;;12.45;100.00;99847.16;6332291;20;1800880;-53
2023/05/18 06:31:40;;;;;;;;;1.00;1.00;;;;;12.35;100.00;99840.66;6317445;20;2723191;-52
2023/05/18 06:34:07;;;;;;;;;1.00;1.00;;;;;12.44;100.00;99848.09;6294954;20;2730608;-50
2023/05/18 06:36:36;;;;;;;;;1.00;1.00;;;;;12.43;100.00;99849.09;6298586;20;1804581;-53
2023/05/18 06:39:04;;;;;;;;;2.00;1.00;;;;;12.46;100.00;99846.19;6316818;20;2732583;-49
2023/05/18 06:41:32;;;;;;;;;1.25;1.25;;;;;12.29;100.00;99846.44;6301538;20;1803058;-53
2023/05/18 06:44:00;;;;;;;;;1.00;1.00;;;;;12.41;100.00;99847.47;6320349;20;2735710;-52
2023/05/18 06:46:29;;;;;;;;;1.00;1.00;;;;;12.38;100.00;99855.75;6299513;20;1799354;-50
2023/05/18 06:48:56;;;;;;;;;1.00;1.00;;;;;12.53;100.00;99862.78;6319217;20;2730496;-53
2023/05/18 06:51:24;;;;;;;;;0.50;0.50;;;;;12.57;100.00;99861.63;6304144;20;1803543;-51
2023/05/18 06:53:51;;;;;;;;;1.00;1.00;;;;;12.50;100.00;99860.28;6318498;20;2728575;-51
2023/05/18 06:56:21;;;;;;;;;1.00;1.00;;;;;12.65;100.00;99861.13;6300397;20;1798283;-53
2023/05/18 06:58:48;;;;;;;;;1.00;1.00;;;;;12.56;100.00;99865.28;6321288;20;2727496;-49
2023/05/18 07:01:16;;;;;;;;;0.00;0.00;;;;;12.33;100.00;99874.03;6285688;20;2729623;-52
2023/05/18 07:03:44;;;;;;;;;0.50;0.50;;;;;12.49;100.00;99875.59;6286083;20;2726400;-52
2023/05/18 07:06:11;;;;;;;;;1.00;1.00;;;;;12.52;100.00;99870.00;6284729;20;2736852;-56
2023/05/18 07:08:39;;;;;;;;;0.00;0.00;;;;;12.37;100.00;99871.03;6300639;20;1800383;-50
2023/05/18 07:11:08;;;;;;;;;0.00;0.00;;;;;12.42;100.00;99874.28;6317884;20;2731571;-51
2023/05/18 07:13:36;;;;;;;;;0.00;0.00;;;;;12.55;100.00;99871.63;6293747;20;1802470;-54
2023/05/18 07:16:03;;;;;;;;;0.00;0.00;;;;;12.55;100.00;99873.47;6316225;20;2733635;-53
2023/05/18 07:18:32;;;;;;;;;0.00;0.00;;;;;12.69;100.00;99881.47;6282379;20;2728506;-50
2023/05/18 07:21:00;;;;;;;;;0.00;0.00;;;;;12.49;100.00;99881.00;6301826;20;1803533;-50
2023/05/18 07:23:28;;;;;;;;;0.00;0.00;;;;;12.69;100.00;99881.47;6314461;20;2724360;-53
2023/05/18 07:25:56;;;;;;;;;0.00;0.00;;;;;12.56;100.00;99892.22;6299074;20;1803976;-51
2023/05/18 07:28:24;;;;;;;;;1.00;1.00;;;;;12.69;100.00;99885.06;6316667;20;2728415;-55
2023/05/18 07:30:51;;;;;;;;;0.00;0.00;;;;;12.68;100.00;99885.16;6283196;20;2727374;-50
2023/05/18 07:33:18;;;;;;;;;1.00;1.00;;;;;12.60;100.00;99895.56;6285834;20;2744055;-57
2023/05/18 07:35:45;;;;;;;;;0.50;0.50;;;;;12.71;100.00;99891.19;6282140;20;2728443;-56
2023/05/18 07:38:15;;;;;;;;;2.00;1.00;;;;;12.64;100.00;99889.88;6297782;20;1799412;-53
2023/05/18 07:40:42;;;;;;;;;0.50;0.50;;;;;12.73;100.00;99888.41;6318451;20;2728498;-52
2023/05/18 07:43:10;;;;;;;;;1.00;1.00;;;;;12.69;100.00;99894.94;6289733;20;2730676;-54
2023/05/18 07:45:38;;;;;;;;;1.00;1.00;;;;;12.75;100.00;99891.84;6302994;20;1803533;-48
2023/05/18 07:48:06;;;;;;;;;0.50;0.50;;;;;12.76;100.00;99893.56;6323610;20;2727398;-50
2023/05/18 07:50:34;;;;;;;;;0.00;0.00;;;;;12.72;100.00;99890.22;6306947;20;1802483;-54
2023/05/18 07:53:02;;;;;;;;;2.00;2.00;;;;;12.94;100.00;99892.31;6321528;20;2725267;-52
2023/05/18 07:55:30;;;;;;;;;1.00;1.00;;;;;12.96;100.00;99895.78;6300800;20;1803587;-51
2023/05/18 07:57:59;;;;;;;;;1.00;1.00;;;;;13.23;100.00;99896.69;6322462;20;2725307;-56
2023/05/18 08:00:27;;;;;;;;;1.00;1.00;;;;;13.34;100.00;99897.69;6290336;20;2735693;-53
2023/05/18 08:02:54;;;;;;;;;1.00;1.00;;;;;13.44;100.00;99910.56;6292248;20;2726454;-49
2023/05/18 08:05:23;;;;;;;;;44.00;37.00;;;;;13.43;100.00;99903.41;6279820;20;3580535;-53
2023/05/18 08:07:50;;;;;;;;;1.00;1.00;;;;;13.39;100.00;99910.88;6319538;20;2732629;-50
2023/05/18 08:10:18;;;;;;;;;1.00;1.00;;;;;13.42;100.00;99904.41;6291125;20;2731739;-53
2023/05/18 08:12:46;;;;;;;;;0.75;0.75;;;;;13.31;100.00;99899.75;6307801;20;1803611;-52
2023/05/18 08:15:13;;;;;;;;;4.00;1.00;;;;;13.39;100.00;99905.47;6321371;20;2731538;-55
2023/05/18 08:17:40;;;;;;;;;1.00;1.00;;;;;13.39;100.00;99913.56;6290536;20;2727420;-54
2023/05/18 08:20:09;;;;;;;;;2.00;1.00;;;;;13.52;100.00;99903.63;6305162;20;1788270;-54
2023/05/18 08:22:37;;;;;;;;;1.00;1.00;;;;;13.36;100.00;99911.09;6318251;20;2731750;-52
2023/05/18 08:25:09;;;;;;;;;1.00;1.00;;;;;13.49;100.00;99908.41;6306038;20;1798763;-54
2023/05/18 08:27:36;;;;;;;;;0.00;0.00;;;;;13.50;100.00;99916.38;6320440;20;2733733;-55
2023/05/18 08:30:04;;;;;;;;;0.00;0.00;;;;;13.54;100.00;99914.34;6290794;20;2731569;-48
2023/05/18 08:32:31;;;;;;;;;1.00;1.00;;;;;13.43;100.00;99914.19;6287262;20;2734685;-51
2023/05/18 08:34:59;;;;;;;;;1.00;1.00;;;;;13.52;100.00;99913.56;6288180;20;2725348;-49
2023/05/18 08:37:28;;;;;;;;;2.00;0.00;;;;;13.67;100.00;99923.28;6292899;20;2727530;-50
2023/05/18 08:39:55;;;;;;;;;2.00;0.50;;;;;13.59;100.00;99922.97;6288510;20;2733675;-47
2023/05/18 08:42:33;;;;;;;;;0.00;0.00;;;;;13.43;100.00;99916.91;6274600;20;2729571;-52
2023/05/18 08:45:47;;;;;;;;;0.00;0.00;;;;;13.23;100.00;99920.97;6301106;20;1803530;-54
2023/05/18 08:48:15;;;;;;;;;0.50;0.50;;;;;13.35;100.00;99923.72;6315991;20;2731542;-51
2023/05/18 08:50:46;;;;;;;;;2.00;0.00;;;;;13.61;100.00;99926.41;6300232;20;1803002;-51
2023/05/18 08:53:14;;;;;;;;;1.00;1.00;;;;;13.64;100.00;99923.50;6312955;20;2458669;-50
2023/05/18 08:55:43;;;;;;;;;1.00;1.00;;;;;13.70;100.00;99933.00;6287349;20;2727402;-53
2023/05/18 08:58:16;;;;;;;;;3.00;1.00;;;;;13.80;100.00;99931.38;6284836;20;2730530;-52
2023/05/18 09:00:44;;;;;;;;;2.00;2.00;;;;;13.83;100.00;99931.16;6283930;20;2732691;-54
2023/05/18 09:03:13;;;;;;;;;1.00;1.00;;;;;13.97;100.00;99932.88;6284184;20;2727385;-52
2023/05/18 09:05:40;;;;;;;;;2.00;2.00;;;;;13.84;100.00;99922.94;6284741;20;2739919;-52
2023/05/18 09:08:09;;;;;;;;;1.00;1.00;;;;;13.99;100.00;99933.63;6282935;20;2755917;-48
2023/05/18 09:10:38;;;;;;;;;1.00;1.00;;;;;13.78;100.00;99930.63;6282287;20;2727375;-54
2023/05/18 09:13:06;;;;;;;;;2.00;2.00;;;;;14.04;100.00;99924.22;6286141;20;2735699;-50
2023/05/18 09:15:36;;;;;;;;;2.00;2.00;;;;;13.96;100.00;99928.47;6285392;20;2737813;-54
2023/05/18 09:18:03;;;;;;;;;1.00;1.00;;;;;13.92;100.00;99924.25;6288185;20;2724243;-53
2023/05/18 09:20:31;;;;;;;;;2.00;2.00;;;;;13.89;100.00;99930.72;6284938;20;2745153;-52
2023/05/18 09:22:59;;;;;;;;;1.00;1.00;;;;;13.82;100.00;99929.41;6290040;20;2729501;-54
2023/05/18 09:25:27;;;;;;;;;3.00;1.00;;;;;13.78;100.00;99930.63;6286193;20;2731618;-49
2023/05/18 09:27:55;;;;;;;;;2.00;2.00;;;;;13.79;100.00;99932.34;6302057;20;1804686;-51
2023/05/18 09:30:24;;;;;;;;;2.00;1.00;;;;;14.04;100.00;99926.91;6320025;20;2740408;-53
2023/05/18 09:32:52;;;;;;;;;2.00;2.00;;;;;14.08;100.00;99932.09;6284592;20;2737885;-50
2023/05/18 09:35:20;;;;;;;;;2.00;2.00;;;;;14.17;100.00;99926.03;6285466;20;2742007;-52
2023/05/18 09:37:49;;;;;;;;;1.00;1.00;;;;;13.99;100.00;99931.78;6307813;20;1797212;-52
2023/05/18 09:40:18;;;;;;;;;2.00;2.00;;;;;13.98;100.00;99932.78;6318622;20;2742045;-53
2023/05/18 09:42:46;;;;;;;;;2.00;2.00;;;;;13.91;100.00;99930.63;6284732;20;2751416;-54
2023/05/18 09:45:28;;;;;;;;;1.00;1.00;;;;;13.98;100.00;99931.88;6283085;20;2738418;-51
2023/05/18 09:47:55;;;;;;;;;3.00;1.00;;;;;14.05;100.00;99941.28;6282986;20;2735825;-54
2023/05/18 09:50:24;;;;;;;;;1.00;1.00;;;;;13.97;100.00;99946.38;6286576;20;2724264;-55
2023/05/18 09:52:51;;;;;;;;;1.00;1.00;;;;;14.07;100.00;99941.19;6285115;20;2729454;-51
2023/05/18 09:55:19;;;;;;;;;2.50;1.50;;;;;14.01;100.00;99940.66;6299997;20;1803532;-52
2023/05/18 09:57:49;;;;;;;;;1.00;1.00;;;;;14.04;100.00;99942.25;6319548;20;2726491;-53
2023/05/18 10:00:19;;;;;;;;;2.00;2.00;;;;;14.05;100.00;99943.97;6280595;20;2744130;-51
2023/05/18 10:02:51;;;;;;;;;3.00;3.00;;;;;14.07;100.00;99944.75;6288126;20;2756570;-52
2023/05/18 10:05:28;;;;;;;;;1.00;1.00;;;;;13.98;100.00;99953.47;6290464;20;2735989;-54
2023/05/18 10:07:57;;;;;;;;;2.50;2.00;;;;;14.12;100.00;99950.66;6285090;20;2742053;-49
2023/05/18 10:10:28;;;;;;;;;1.50;1.50;;;;;14.11;100.00;99954.31;6284791;20;2733644;-55
2023/05/18 10:12:59;;;;;;;;;2.00;2.00;;;;;14.12;100.00;99950.66;6285538;20;2742579;-53
2023/05/18 10:15:26;;;;;;;;;2.00;2.00;;;;;14.19;100.00;99951.97;6285926;20;2744033;-54
2023/05/18 10:17:57;;;;;;;;;0.00;0.00;;;;;14.16;100.00;99941.34;6302439;20;1803570;-54
2023/05/18 10:20:26;;;;;;;;;1.00;1.00;;;;;14.20;100.00;99947.41;6310801;20;2730517;-53
2023/05/18 10:23:00;;;;;;;;;2.00;2.00;;;;;14.04;100.00;99948.53;6285898;20;2752375;-50
2023/05/18 10:25:28;;;;;;;;;2.00;2.00;;;;;13.80;100.00;99951.13;6301637;20;1801917;-50
2023/05/18 10:28:06;;;;;;;;;3.00;1.00;;;;;14.04;100.00;99950.38;6316920;20;2737841;-51
2023/05/18 10:30:34;;;;;;;;;2.50;2.50;;;;;13.99;100.00;99956.09;6282404;20;2754463;-53
2023/05/18 10:33:02;;;;;;;;;2.00;2.00;;;;;14.20;100.00;99953.69;6289850;20;2737842;-50
2023/05/18 10:35:38;;;;;;;;;12.50;12.50;;;;;14.33;100.00;99950.97;6279152;20;2787987;-54
2023/05/18 10:38:07;;;;;;;;;13.00;10.33;;;;;14.16;100.00;99946.75;6281679;20;3512912;-51
2023/05/18 10:40:39;;;;;;;;;4.40;4.40;;;;;14.13;100.00;99957.78;6303859;20;2750338;-55
2023/05/18 10:43:07;;;;;;;;;3.50;3.50;;;;;14.20;100.00;99953.69;6280577;20;2751379;-55
2023/05/18 10:45:36;;;;;;;;;2.50;2.50;;;;;14.45;100.00;99959.97;6285315;20;2738832;-52
2023/05/18 10:48:05;;;;;;;;;3.00;3.00;;;;;14.30;100.00;99958.41;6279776;20;2756666;-53
2023/05/18 10:50:36;;;;;;;;;3.00;3.00;;;;;14.22;100.00;99951.75;6284226;20;2745156;-53
2023/05/18 10:53:05;;;;;;;;;4.00;4.00;;;;;14.32;100.00;99951.06;6285772;20;2741991;-57
2023/05/18 10:55:33;;;;;;;;;3.00;3.00;;;;;14.18;100.00;99957.47;6283576;20;2720368;-54
2023/05/18 11:03:24;;;;;;;;;5.00;5.00;;;;;14.04;100.00;99953.91;6293493;20;2743040;-53
2023/05/18 11:06:11;;;;;;;;;9.00;6.50;;;;;14.17;100.00;99953.91;6283303;20;2746155;-53
2023/05/18 11:08:57;;;;;;;;;5.00;5.00;;;;;14.23;100.00;99953.44;6292319;20;2745559;-54
2023/05/18 11:11:53;;;;;;;;;6.00;6.00;;;;;14.54;100.00;99951.25;6291692;20;2732615;-54
2023/05/18 11:14:27;;;;;;;;;3.00;3.00;;;;;14.39;100.00;99952.34;6295021;20;2753659;-60
2023/05/18 11:20:06;;;;;;;;;6.50;5.00;;;;;14.63;100.00;99960.50;6287277;20;2740891;-60
2023/05/18 11:23:01;;;;;;;;;5.00;5.00;;;;;14.61;100.00;99963.34;6294139;20;2748254;-61
2023/05/18 11:25:31;;;;;;;;;7.50;6.50;;;;;14.64;100.00;99963.09;6298569;20;2741038;-60
2023/05/18 11:33:30;;;;;;;;;3.60;3.60;;;;;14.61;100.00;99966.03;6334090;20;2475293;-59
2023/05/18 11:36:12;;;;;;;;;6.00;6.00;;;;;14.71;100.00;99969.75;6319949;20;2741979;-62